createdAt,value
2022-11-29T00:00:19.810Z,101251.47
2022-11-29T00:01:27.515Z,101263.44
2022-11-29T00:02:29.869Z,101260.03
2022-11-29T00:03:32.399Z,101259.47
2022-11-29T00:04:34.697Z,101263.41
2022-11-29T00:05:37.198Z,101260.06
2022-11-29T00:06:40.167Z,101262.66
2022-11-29T00:07:42.893Z,101255.91
2022-11-29T00:08:45.839Z,101259.25
2022-11-29T00:09:48.018Z,101255.34
2022-11-29T00:10:50.703Z,101266.53
2022-11-29T00:12:11.642Z,101263.72
2022-11-29T00:13:14.242Z,101260.56
2022-11-29T00:14:19.111Z,101264.19
2022-11-29T00:15:21.493Z,101263.47
2022-11-29T00:16:23.973Z,101260.38
2022-11-29T00:17:26.406Z,101259.56
2022-11-29T00:18:28.732Z,101258.78
2022-11-29T00:19:33.118Z,101255.16
2022-11-29T00:20:35.982Z,101247.06
2022-11-29T00:21:38.707Z,101265.00
2022-11-29T00:22:41.053Z,101255.88
2022-11-29T00:23:43.406Z,101260.56
2022-11-29T00:24:45.765Z,101253.25
2022-11-29T00:25:49.568Z,101257.94
2022-11-29T00:26:52.279Z,101259.78
2022-11-29T00:27:54.622Z,101252.75
2022-11-29T00:28:57.069Z,101255.16
2022-11-29T00:29:59.375Z,101254.94
2022-11-29T00:31:01.799Z,101257.47
2022-11-29T00:32:04.520Z,101251.75
2022-11-29T00:33:06.786Z,101259.03
2022-11-29T00:34:10.942Z,101257.44
2022-11-29T00:35:13.791Z,101253.06
2022-11-29T00:36:16.621Z,101252.53
2022-11-29T00:37:19.866Z,101255.97
2022-11-29T00:38:22.055Z,101255.41
2022-11-29T00:39:24.665Z,101248.31
2022-11-29T00:40:27.013Z,101248.63
2022-11-29T00:41:29.374Z,101250.44
2022-11-29T00:42:31.862Z,101252.25
2022-11-29T00:43:34.534Z,101251.75
2022-11-29T00:44:36.920Z,101254.31
2022-11-29T00:45:39.234Z,101257.66
2022-11-29T00:46:41.572Z,101256.09
2022-11-29T00:47:43.801Z,101250.66
2022-11-29T00:48:46.050Z,101255.63
2022-11-29T00:49:48.415Z,101256.97
2022-11-29T00:50:50.696Z,101259.31
2022-11-29T00:51:52.878Z,101259.78
2022-11-29T00:52:55.283Z,101257.75
2022-11-29T00:53:57.622Z,101257.44
2022-11-29T00:54:59.992Z,101251.44
2022-11-29T00:56:04.773Z,101258.72
2022-11-29T00:57:07.135Z,101254.28
2022-11-29T00:58:09.640Z,101255.84
2022-11-29T00:59:11.965Z,101253.28
2022-11-29T01:00:14.883Z,101251.72
2022-11-29T01:01:17.785Z,101242.34
2022-11-29T01:02:20.149Z,101247.81
2022-11-29T01:03:23.112Z,101249.66
2022-11-29T01:04:25.670Z,101254.34
2022-11-29T01:05:27.833Z,101246.03
2022-11-29T01:06:30.147Z,101253.31
2022-11-29T01:07:32.552Z,101245.22
2022-11-29T01:08:35.358Z,101244.41
2022-11-29T01:09:37.596Z,101241.28
2022-11-29T01:10:40.089Z,101242.31
2022-11-29T01:11:42.416Z,101240.72
2022-11-29T01:12:44.636Z,101252.72
2022-11-29T01:13:47.974Z,101246.75
2022-11-29T01:14:50.223Z,101245.91
2022-11-29T01:15:56.901Z,101244.94
2022-11-29T01:16:59.600Z,101249.09
2022-11-29T01:18:02.065Z,101251.47
2022-11-29T01:19:04.884Z,101245.47
2022-11-29T01:20:10.534Z,101241.00
2022-11-29T01:21:17.825Z,101244.66
2022-11-29T01:22:20.095Z,101242.81
2022-11-29T01:23:22.315Z,101253.75
2022-11-29T01:24:24.627Z,101238.66
2022-11-29T01:25:27.025Z,101246.75
2022-11-29T01:26:31.204Z,101238.69
2022-11-29T01:27:33.757Z,101240.72
2022-11-29T01:28:37.864Z,101235.28
2022-11-29T01:29:40.595Z,101237.38
2022-11-29T01:30:42.919Z,101228.25
2022-11-29T01:31:45.236Z,101236.31
2022-11-29T01:32:47.598Z,101231.34
2022-11-29T01:33:54.303Z,101238.69
2022-11-29T01:34:57.343Z,101234.72
2022-11-29T01:36:01.663Z,101236.03
2022-11-29T01:37:04.277Z,101234.50
2022-11-29T01:38:07.104Z,101229.75
2022-11-29T01:39:09.313Z,101231.59
2022-11-29T01:40:12.041Z,101233.97
2022-11-29T01:41:17.286Z,101238.34
2022-11-29T01:42:19.606Z,101230.25
2022-11-29T01:43:21.780Z,101225.31
2022-11-29T01:44:24.067Z,101227.97
2022-11-29T01:45:27.162Z,101232.41
2022-11-29T01:46:35.615Z,101224.00
2022-11-29T01:47:41.734Z,101231.56
2022-11-29T01:48:43.991Z,101234.69
2022-11-29T01:49:48.473Z,101220.09
2022-11-29T01:50:51.495Z,101224.06
2022-11-29T01:52:04.906Z,101224.31
2022-11-29T01:53:08.843Z,101227.97
2022-11-29T01:54:12.692Z,101226.94
2022-11-29T01:55:15.086Z,101228.50
2022-11-29T01:56:17.680Z,101224.31
2022-11-29T01:57:20.989Z,101228.75
2022-11-29T01:58:23.622Z,101228.72
2022-11-29T01:59:28.502Z,101228.16
2022-11-29T02:00:30.784Z,101222.69
2022-11-29T02:01:34.824Z,101226.91
2022-11-29T02:02:42.665Z,101221.38
2022-11-29T02:03:44.979Z,101218.03
2022-11-29T02:04:48.791Z,101225.31
2022-11-29T02:05:52.740Z,101220.34
2022-11-29T02:06:55.483Z,101221.13
2022-11-29T02:07:59.377Z,101221.38
2022-11-29T02:09:02.165Z,101219.34
2022-11-29T02:10:07.229Z,101221.69
2022-11-29T02:11:15.507Z,101224.53
2022-11-29T02:12:24.777Z,101215.16
2022-11-29T02:13:43.188Z,101223.50
2022-11-29T02:15:41.462Z,101219.81
2022-11-29T02:16:44.796Z,101222.94
2022-11-29T02:17:55.981Z,101226.78
2022-11-29T02:19:13.231Z,101226.84
2022-11-29T02:20:34.005Z,101219.53
2022-11-29T02:21:40.534Z,101219.28
2022-11-29T02:23:01.704Z,101233.06
2022-11-29T02:24:15.282Z,101234.09
2022-11-29T02:25:45.383Z,101237.19
2022-11-29T02:27:06.720Z,101232.53
2022-11-29T02:28:50.429Z,101224.75
2022-11-29T02:30:17.120Z,101219.78
2022-11-29T02:31:34.203Z,101225.78
2022-11-29T02:32:36.393Z,101229.91
2022-11-29T02:33:53.095Z,101228.34
2022-11-29T02:35:33.719Z,101227.56
2022-11-29T02:36:57.725Z,101231.75
2022-11-29T02:38:05.872Z,101227.06
2022-11-29T02:39:34.904Z,101230.19
2022-11-29T02:40:58.492Z,101231.47
2022-11-29T02:42:55.609Z,101230.19
2022-11-29T02:44:07.999Z,101231.69
2022-11-29T02:45:39.499Z,101229.59
2022-11-29T02:46:55.962Z,101237.94
2022-11-29T02:48:13.523Z,101237.47
2022-11-29T02:50:10.139Z,101236.44
2022-11-29T02:51:28.091Z,101239.28
2022-11-29T02:52:42.940Z,101234.06
2022-11-29T02:53:48.177Z,101240.31
2022-11-29T02:55:05.705Z,101240.22
2022-11-29T02:56:40.263Z,101236.88
2022-11-29T02:57:50.845Z,101238.50
2022-11-29T02:59:22.382Z,101244.94
2022-11-29T03:00:25.502Z,101242.63
2022-11-29T03:01:37.743Z,101238.44
2022-11-29T03:02:51.625Z,101240.28
2022-11-29T03:04:09.262Z,101244.22
2022-11-29T03:05:32.541Z,101244.97
2022-11-29T03:06:34.763Z,101243.91
2022-11-29T03:08:02.640Z,101248.34
2022-11-29T03:09:16.749Z,101242.34
2022-11-29T03:10:50.483Z,101241.06
2022-11-29T03:12:05.956Z,101240.97
2022-11-29T03:13:20.534Z,101238.53
2022-11-29T03:14:28.757Z,101241.63
2022-11-29T03:15:50.028Z,101238.81
2022-11-29T03:17:12.243Z,101241.97
2022-11-29T03:18:23.719Z,101248.16
2022-11-29T03:19:41.163Z,101242.72
2022-11-29T03:20:55.444Z,101243.00
2022-11-29T03:22:24.415Z,101236.78
2022-11-29T03:23:26.674Z,101239.88
2022-11-29T03:24:57.971Z,101243.00
2022-11-29T03:26:20.421Z,101240.69
2022-11-29T03:28:09.370Z,101233.66
2022-11-29T03:29:33.504Z,101236.00
2022-11-29T03:30:40.208Z,101235.72
2022-11-29T03:32:16.083Z,101232.53
2022-11-29T03:33:46.114Z,101237.22
2022-11-29T03:35:24.563Z,101247.63
2022-11-29T03:37:05.049Z,101241.38
2022-11-29T03:38:40.407Z,101247.72
2022-11-29T03:39:55.788Z,101246.16
2022-11-29T03:41:05.036Z,101245.91
2022-11-29T03:42:14.255Z,101240.91
2022-11-29T03:43:22.150Z,101246.69
2022-11-29T03:44:29.697Z,101247.75
2022-11-29T03:45:48.824Z,101242.75
2022-11-29T03:46:57.395Z,101237.28
2022-11-29T03:48:09.614Z,101239.41
2022-11-29T03:49:19.580Z,101240.38
2022-11-29T03:50:28.194Z,101243.00
2022-11-29T03:51:54.844Z,101239.13
2022-11-29T03:53:08.067Z,101247.69
2022-11-29T03:54:15.828Z,101238.81
2022-11-29T03:55:52.943Z,101242.25
2022-11-29T03:56:56.661Z,101238.63
2022-11-29T03:58:23.649Z,101240.94
2022-11-29T03:59:25.883Z,101238.81
2022-11-29T04:00:48.768Z,101247.19
2022-11-29T04:02:24.560Z,101247.97
2022-11-29T04:03:28.974Z,101248.47
2022-11-29T04:05:07.209Z,101238.81
2022-11-29T04:06:27.516Z,101245.59
2022-11-29T04:08:03.236Z,101244.03
2022-11-29T04:09:50.492Z,101247.44
2022-11-29T04:11:11.864Z,101242.47
2022-11-29T04:12:35.730Z,101232.88
2022-11-29T04:13:56.459Z,101229.75
2022-11-29T04:15:25.345Z,101234.50
2022-11-29T04:17:05.801Z,101241.81
2022-11-29T04:18:26.613Z,101239.72
2022-11-29T04:19:44.411Z,101240.22
2022-11-29T04:20:52.833Z,101239.22
2022-11-29T04:22:30.306Z,101240.50
2022-11-29T04:24:09.528Z,101245.16
2022-11-29T04:25:48.942Z,101244.09
2022-11-29T04:27:14.410Z,101248.34
2022-11-29T04:28:30.919Z,101247.31
2022-11-29T04:29:36.273Z,101241.50
2022-11-29T04:31:12.659Z,101247.78
2022-11-29T04:32:50.402Z,101248.28
2022-11-29T04:34:14.953Z,101249.28
2022-11-29T04:35:36.019Z,101248.78
2022-11-29T04:36:47.321Z,101245.16
2022-11-29T04:38:11.336Z,101251.41
2022-11-29T04:39:38.344Z,101253.72
2022-11-29T04:41:05.396Z,101249.78
2022-11-29T04:42:47.771Z,101247.47
2022-11-29T04:43:53.006Z,101249.19
2022-11-29T04:45:04.709Z,101248.16
2022-11-29T04:46:19.362Z,101256.44
2022-11-29T04:47:50.095Z,101241.25
2022-11-29T04:49:10.380Z,101251.66
2022-11-29T04:50:21.325Z,101254.94
2022-11-29T04:51:35.478Z,101257.53
2022-11-29T04:53:08.896Z,101255.97
2022-11-29T04:54:22.986Z,101261.66
2022-11-29T04:55:31.151Z,101262.63
2022-11-29T04:56:41.453Z,101261.84
2022-11-29T04:57:49.737Z,101262.31
2022-11-29T04:59:03.826Z,101261.44
2022-11-29T05:00:38.899Z,101257.03
2022-11-29T05:02:10.954Z,101265.25
2022-11-29T05:03:45.741Z,101259.41
2022-11-29T05:05:01.129Z,101264.28
2022-11-29T05:06:15.558Z,101268.09
2022-11-29T05:07:22.362Z,101266.75
2022-11-29T05:08:40.361Z,101270.88
2022-11-29T05:10:18.529Z,101265.13
2022-11-29T05:11:27.951Z,101266.13
2022-11-29T05:12:43.309Z,101261.72
2022-11-29T05:13:52.972Z,101261.38
2022-11-29T05:15:03.147Z,101268.84
2022-11-29T05:16:49.086Z,101263.34
2022-11-29T05:18:16.831Z,101268.53
2022-11-29T05:19:49.189Z,101264.72
2022-11-29T05:21:05.387Z,101269.28
2022-11-29T05:22:20.961Z,101262.06
2022-11-29T05:24:00.812Z,101269.88
2022-11-29T05:25:33.937Z,101263.50
2022-11-29T05:26:56.997Z,101265.78
2022-11-29T05:28:20.620Z,101271.75
2022-11-29T05:29:31.715Z,101262.50
2022-11-29T05:31:15.569Z,101261.22
2022-11-29T05:32:35.098Z,101260.63
2022-11-29T05:34:07.968Z,101265.81
2022-11-29T05:35:29.318Z,101274.00
2022-11-29T05:36:56.471Z,101267.94
2022-11-29T05:38:14.299Z,101267.13
2022-11-29T05:39:39.944Z,101262.19
2022-11-29T05:40:53.983Z,101272.75
2022-11-29T05:42:23.490Z,101268.28
2022-11-29T05:43:37.982Z,101263.66
2022-11-29T05:44:44.838Z,101266.94
2022-11-29T05:46:00.686Z,101277.81
2022-11-29T05:47:10.381Z,101263.56
2022-11-29T05:48:27.017Z,101270.25
2022-11-29T05:49:41.886Z,101278.81
2022-11-29T05:50:55.151Z,101271.75
2022-11-29T05:52:20.828Z,101273.63
2022-11-29T05:53:34.354Z,101268.66
2022-11-29T05:54:44.709Z,101277.56
2022-11-29T05:56:02.786Z,101278.13
2022-11-29T05:57:17.661Z,101269.91
2022-11-29T05:58:33.601Z,101277.03
2022-11-29T05:59:39.179Z,101271.03
2022-11-29T06:00:50.462Z,101276.63
2022-11-29T06:01:57.020Z,101283.31
2022-11-29T06:03:25.640Z,101280.47
2022-11-29T06:04:46.313Z,101277.97
2022-11-29T06:06:03.072Z,101280.31
2022-11-29T06:07:34.620Z,101284.25
2022-11-29T06:08:37.170Z,101280.94
2022-11-29T06:09:48.902Z,101274.41
2022-11-29T06:11:14.110Z,101279.38
2022-11-29T06:12:23.430Z,101278.88
2022-11-29T06:14:06.699Z,101278.72
2022-11-29T06:15:37.200Z,101277.63
2022-11-29T06:16:59.689Z,101288.31
2022-11-29T06:18:17.062Z,101283.66
2022-11-29T06:19:53.676Z,101288.88
2022-11-29T06:21:00.126Z,101291.69
2022-11-29T06:22:21.562Z,101291.53
2022-11-29T06:23:36.764Z,101289.28
2022-11-29T06:24:48.072Z,101287.75
2022-11-29T06:26:04.099Z,101283.91
2022-11-29T06:27:13.190Z,101286.25
2022-11-29T06:28:22.844Z,101290.94
2022-11-29T06:29:50.026Z,101287.06
2022-11-29T06:30:55.189Z,101294.41
2022-11-29T06:32:19.557Z,101286.25
2022-11-29T06:33:31.820Z,101293.03
2022-11-29T06:34:56.711Z,101289.47
2022-11-29T06:36:20.001Z,101294.03
2022-11-29T06:37:45.265Z,101295.34
2022-11-29T06:38:47.972Z,101290.63
2022-11-29T06:39:50.698Z,101294.03
2022-11-29T06:41:01.545Z,101297.41
2022-11-29T06:42:04.640Z,101299.59
2022-11-29T06:43:07.106Z,101304.78
2022-11-29T06:44:10.581Z,101303.50
2022-11-29T06:45:14.657Z,101297.41
2022-11-29T06:46:55.873Z,101302.03
2022-11-29T06:48:03.615Z,101299.69
2022-11-29T06:49:10.121Z,101303.41
2022-11-29T06:50:30.902Z,101310.78
2022-11-29T06:51:47.807Z,101305.66
2022-11-29T06:52:55.477Z,101310.56
2022-11-29T06:54:36.039Z,101311.75
2022-11-29T06:56:19.620Z,101315.50
2022-11-29T06:57:30.687Z,101319.09
2022-11-29T06:58:40.590Z,101324.38
2022-11-29T07:00:16.443Z,101327.97
2022-11-29T07:01:27.919Z,101321.34
2022-11-29T07:03:11.967Z,101322.66
2022-11-29T07:04:46.792Z,101323.91
2022-11-29T07:05:49.821Z,101324.78
2022-11-29T07:06:52.711Z,101318.59
2022-11-29T07:08:02.317Z,101314.66
2022-11-29T07:09:16.729Z,101319.59
2022-11-29T07:10:20.797Z,101313.03
2022-11-29T07:11:23.190Z,101316.13
2022-11-29T07:12:26.614Z,101325.53
2022-11-29T07:13:29.196Z,101321.44
2022-11-29T07:14:32.163Z,101324.53
2022-11-29T07:15:36.964Z,101316.91
2022-11-29T07:16:45.224Z,101313.78
2022-11-29T07:18:06.971Z,101325.09
2022-11-29T07:19:20.791Z,101317.28
2022-11-29T07:20:51.287Z,101318.59
2022-11-29T07:22:19.701Z,101313.91
2022-11-29T07:23:29.058Z,101320.44
2022-11-29T07:24:39.628Z,101321.19
2022-11-29T07:25:41.808Z,101314.41
2022-11-29T07:26:59.694Z,101315.72
2022-11-29T07:28:08.725Z,101318.88
2022-11-29T07:29:26.090Z,101315.88
2022-11-29T07:30:38.720Z,101324.34
2022-11-29T07:32:12.498Z,101320.25
2022-11-29T07:33:32.354Z,101324.63
2022-11-29T07:34:47.202Z,101324.63
2022-11-29T07:36:24.138Z,101327.06
2022-11-29T07:37:40.193Z,101330.91
2022-11-29T07:39:10.572Z,101331.16
2022-11-29T07:40:51.646Z,101331.06
2022-11-29T07:42:18.364Z,101325.19
2022-11-29T07:43:20.536Z,101339.34
2022-11-29T07:44:56.239Z,101336.69
2022-11-29T07:46:00.340Z,101336.84
2022-11-29T07:47:02.641Z,101330.41
2022-11-29T07:48:05.297Z,101334.91
2022-11-29T07:49:10.816Z,101326.81
2022-11-29T07:50:16.813Z,101333.59
2022-11-29T07:51:22.214Z,101333.53
2022-11-29T07:52:24.938Z,101333.06
2022-11-29T07:53:29.295Z,101332.97
2022-11-29T07:54:31.598Z,101335.22
2022-11-29T07:55:35.235Z,101325.66
2022-11-29T07:56:37.574Z,101331.53
2022-11-29T07:57:40.032Z,101324.72
2022-11-29T07:58:43.742Z,101328.38
2022-11-29T07:59:46.500Z,101334.91
2022-11-29T08:00:49.083Z,101335.19
2022-11-29T08:01:51.930Z,101339.00
2022-11-29T08:02:54.288Z,101338.63
2022-11-29T08:03:56.593Z,101335.16
2022-11-29T08:05:01.877Z,101344.69
2022-11-29T08:06:04.432Z,101338.44
2022-11-29T08:07:07.518Z,101343.53
2022-11-29T08:08:09.896Z,101346.88
2022-11-29T08:09:12.245Z,101346.09
2022-11-29T08:10:16.918Z,101342.81
2022-11-29T08:11:19.188Z,101345.13
2022-11-29T08:12:21.613Z,101343.09
2022-11-29T08:13:24.321Z,101343.03
2022-11-29T08:14:27.289Z,101336.72
2022-11-29T08:15:29.818Z,101337.97
2022-11-29T08:16:32.732Z,101337.59
2022-11-29T08:17:34.992Z,101336.84
2022-11-29T08:18:37.943Z,101335.34
2022-11-29T08:19:40.221Z,101339.16
2022-11-29T08:20:43.437Z,101336.88
2022-11-29T08:21:47.868Z,101341.81
2022-11-29T08:23:00.023Z,101338.94
2022-11-29T08:24:02.301Z,101342.16
2022-11-29T08:25:06.114Z,101337.88
2022-11-29T08:26:08.675Z,101337.88
2022-11-29T08:27:11.150Z,101343.97
2022-11-29T08:28:14.480Z,101339.47
2022-11-29T08:29:16.926Z,101340.78
2022-11-29T08:30:22.392Z,101347.63
2022-11-29T08:31:25.235Z,101339.66
2022-11-29T08:32:28.168Z,101347.00
2022-11-29T08:33:31.450Z,101335.78
2022-11-29T08:34:33.802Z,101348.19
2022-11-29T08:35:36.219Z,101333.59
2022-11-29T08:36:39.113Z,101336.69
2022-11-29T08:37:41.338Z,101343.59
2022-11-29T08:38:44.426Z,101339.03
2022-11-29T08:39:46.675Z,101340.13
2022-11-29T08:40:48.916Z,101337.97
2022-11-29T08:41:51.161Z,101351.72
2022-11-29T08:42:58.455Z,101350.56
2022-11-29T08:44:00.750Z,101347.91
2022-11-29T08:45:04.360Z,101351.88
2022-11-29T08:46:07.368Z,101349.03
2022-11-29T08:47:29.599Z,101345.16
2022-11-29T08:48:32.074Z,101357.16
2022-11-29T08:49:34.403Z,101352.66
2022-11-29T08:50:37.449Z,101350.41
2022-11-29T08:51:39.796Z,101355.31
2022-11-29T08:53:03.577Z,101349.41
2022-11-29T08:54:06.065Z,101351.97
2022-11-29T08:55:08.841Z,101349.09
2022-11-29T08:56:53.295Z,101347.78
2022-11-29T08:57:40.570Z,101343.97
2022-11-29T08:58:43.306Z,101350.53
2022-11-29T08:59:46.140Z,101345.47
2022-11-29T09:00:48.856Z,101349.22
2022-11-29T09:01:51.115Z,101336.03
2022-11-29T09:02:53.729Z,101345.13
2022-11-29T09:04:00.778Z,101341.03
2022-11-29T09:05:04.999Z,101346.44
2022-11-29T09:06:12.500Z,101346.13
2022-11-29T09:07:16.698Z,101348.47
2022-11-29T09:08:19.302Z,101344.97
2022-11-29T09:09:22.153Z,101334.81
2022-11-29T09:10:24.479Z,101338.50
2022-11-29T09:11:28.949Z,101334.63
2022-11-29T09:12:39.275Z,101333.56
2022-11-29T09:13:47.946Z,101333.69
2022-11-29T09:14:50.219Z,101334.88
2022-11-29T09:15:52.503Z,101340.97
2022-11-29T09:16:54.918Z,101339.84
2022-11-29T09:17:57.822Z,101334.34
2022-11-29T09:19:01.781Z,101330.78
2022-11-29T09:20:05.326Z,101339.06
2022-11-29T09:21:12.973Z,101329.94
2022-11-29T09:22:15.355Z,101333.88
2022-11-29T09:23:17.653Z,101324.56
2022-11-29T09:24:20.865Z,101326.53
2022-11-29T09:25:23.150Z,101327.78
2022-11-29T09:26:28.108Z,101327.66
2022-11-29T09:27:31.220Z,101325.31
2022-11-29T09:28:34.231Z,101325.09
2022-11-29T09:29:37.057Z,101325.69
2022-11-29T09:30:39.877Z,101320.03
2022-11-29T09:31:45.354Z,101326.09
2022-11-29T09:32:48.832Z,101327.66
2022-11-29T09:33:51.211Z,101318.53
2022-11-29T09:34:53.524Z,101317.44
2022-11-29T09:35:58.569Z,101308.94
2022-11-29T09:37:03.358Z,101317.47
2022-11-29T09:38:05.992Z,101311.84
2022-11-29T09:39:10.351Z,101322.25
2022-11-29T09:40:19.791Z,101317.81
2022-11-29T09:41:30.836Z,101315.16
2022-11-29T09:42:33.412Z,101319.00
2022-11-29T09:44:18.944Z,101319.47
2022-11-29T09:45:30.642Z,101319.50
2022-11-29T09:46:45.355Z,101324.84
2022-11-29T09:47:57.990Z,101322.00
2022-11-29T09:49:22.334Z,101321.63
2022-11-29T09:50:52.406Z,101314.09
2022-11-29T09:52:22.754Z,101318.78
2022-11-29T09:53:38.102Z,101321.09
2022-11-29T09:55:07.664Z,101320.91
2022-11-29T09:56:32.613Z,101322.94
2022-11-29T09:57:35.739Z,101321.16
2022-11-29T09:58:50.646Z,101320.13
2022-11-29T10:00:01.719Z,101314.03
2022-11-29T10:01:08.584Z,101317.44
2022-11-29T10:02:21.991Z,101310.97
2022-11-29T10:03:39.100Z,101312.28
2022-11-29T10:04:46.731Z,101314.84
2022-11-29T10:05:56.395Z,101313.63
2022-11-29T10:07:02.785Z,101311.81
2022-11-29T10:08:21.142Z,101308.09
2022-11-29T10:09:56.531Z,101304.22
2022-11-29T10:11:22.284Z,101308.75
2022-11-29T10:12:37.943Z,101307.00
2022-11-29T10:13:45.898Z,101304.06
2022-11-29T10:14:56.788Z,101305.91
2022-11-29T10:16:06.509Z,101303.16
2022-11-29T10:17:26.528Z,101308.25
2022-11-29T10:18:38.734Z,101308.13
2022-11-29T10:20:17.352Z,101307.91
2022-11-29T10:21:28.621Z,101312.50
2022-11-29T10:22:43.969Z,101305.66
2022-11-29T10:23:53.232Z,101306.25
2022-11-29T10:25:02.854Z,101305.16
2022-11-29T10:26:08.875Z,101302.72
2022-11-29T10:27:18.797Z,101302.63
2022-11-29T10:28:36.072Z,101295.34
2022-11-29T10:29:38.738Z,101298.97
2022-11-29T10:30:42.796Z,101296.19
2022-11-29T10:31:49.535Z,101292.75
2022-11-29T10:33:01.478Z,101290.91
2022-11-29T10:34:14.000Z,101294.06
2022-11-29T10:35:19.577Z,101297.59
2022-11-29T10:36:41.265Z,101289.66
2022-11-29T10:38:01.510Z,101292.09
2022-11-29T10:39:14.778Z,101285.78
2022-11-29T10:40:21.767Z,101283.28
2022-11-29T10:41:25.606Z,101283.88
2022-11-29T10:42:47.878Z,101281.25
2022-11-29T10:43:51.854Z,101282.97
2022-11-29T10:44:54.051Z,101280.63
2022-11-29T10:45:56.999Z,101279.06
2022-11-29T10:47:06.593Z,101277.81
2022-11-29T10:48:17.043Z,101274.25
2022-11-29T10:49:21.666Z,101282.19
2022-11-29T10:50:27.434Z,101280.00
2022-11-29T10:51:31.605Z,101273.91
2022-11-29T10:52:34.140Z,101284.50
2022-11-29T10:53:37.849Z,101281.03
2022-11-29T10:54:43.172Z,101286.88
2022-11-29T10:56:02.552Z,101268.41
2022-11-29T10:57:19.781Z,101281.25
2022-11-29T10:58:28.242Z,101270.34
2022-11-29T10:59:33.276Z,101273.50
2022-11-29T11:00:54.699Z,101275.94
2022-11-29T11:01:58.048Z,101275.81
2022-11-29T11:03:17.368Z,101270.06
2022-11-29T11:04:37.441Z,101269.69
2022-11-29T11:05:39.874Z,101269.28
2022-11-29T11:06:44.335Z,101271.63
2022-11-29T11:07:57.660Z,101267.03
2022-11-29T11:09:19.178Z,101265.09
2022-11-29T11:10:27.810Z,101258.31
2022-11-29T11:11:33.789Z,101260.72
2022-11-29T11:12:37.248Z,101258.69
2022-11-29T11:13:41.157Z,101254.47
2022-11-29T11:14:44.829Z,101258.00
2022-11-29T11:15:49.714Z,101263.84
2022-11-29T11:16:52.828Z,101262.34
2022-11-29T11:18:04.574Z,101255.50
2022-11-29T11:19:32.550Z,101249.25
2022-11-29T11:20:41.297Z,101253.38
2022-11-29T11:21:43.690Z,101257.63
2022-11-29T11:22:57.868Z,101260.66
2022-11-29T11:24:04.848Z,101257.41
2022-11-29T11:25:28.584Z,101256.38
2022-11-29T11:26:45.471Z,101254.78
2022-11-29T11:27:48.124Z,101255.28
2022-11-29T11:29:00.374Z,101257.63
2022-11-29T11:30:07.630Z,101255.28
2022-11-29T11:31:11.922Z,101258.66
2022-11-29T11:32:20.893Z,101254.81
2022-11-29T11:33:30.424Z,101256.19
2022-11-29T11:34:34.463Z,101251.50
2022-11-29T11:35:37.455Z,101248.31
2022-11-29T11:36:39.657Z,101256.88
2022-11-29T11:37:42.199Z,101250.56
2022-11-29T11:38:59.818Z,101252.47
2022-11-29T11:40:29.565Z,101253.56
2022-11-29T11:41:54.538Z,101254.81
2022-11-29T11:42:59.524Z,101253.53
2022-11-29T11:44:04.541Z,101262.59
2022-11-29T11:45:12.837Z,101253.06
2022-11-29T11:46:17.956Z,101265.84
2022-11-29T11:47:24.606Z,101268.03
2022-11-29T11:48:27.738Z,101266.91
2022-11-29T11:49:47.094Z,101262.34
2022-11-29T11:50:56.500Z,101264.78
2022-11-29T11:52:00.699Z,101260.25
2022-11-29T11:53:08.465Z,101264.00
2022-11-29T11:54:15.507Z,101257.56
2022-11-29T11:55:35.948Z,101262.13
2022-11-29T11:56:38.322Z,101265.47
2022-11-29T11:57:40.555Z,101262.66
2022-11-29T11:58:52.165Z,101264.88
2022-11-29T12:00:06.437Z,101271.78
2022-11-29T12:01:15.520Z,101277.38
2022-11-29T12:02:28.089Z,101268.63
2022-11-29T12:03:37.906Z,101271.78
2022-11-29T12:04:43.328Z,101273.34
2022-11-29T12:05:51.861Z,101277.31
2022-11-29T12:07:01.025Z,101275.47
2022-11-29T12:08:08.673Z,101274.97
2022-11-29T12:09:34.266Z,101274.88
2022-11-29T12:10:40.521Z,101272.03
2022-11-29T12:12:00.557Z,101273.00
2022-11-29T12:13:03.165Z,101272.47
2022-11-29T12:14:07.242Z,101277.00
2022-11-29T12:15:32.470Z,101278.03
2022-11-29T12:16:39.087Z,101274.50
2022-11-29T12:17:47.160Z,101280.75
2022-11-29T12:18:55.568Z,101272.94
2022-11-29T12:20:22.679Z,101281.97
2022-11-29T12:21:29.498Z,101279.34
2022-11-29T12:22:42.643Z,101284.34
2022-11-29T12:24:01.488Z,101270.84
2022-11-29T12:25:11.028Z,101272.44
2022-11-29T12:26:41.221Z,101270.50
2022-11-29T12:27:40.727Z,101273.41
2022-11-29T12:28:45.588Z,101277.03
2022-11-29T12:29:47.886Z,101277.56
2022-11-29T12:31:02.716Z,101273.22
2022-11-29T12:32:04.933Z,101277.50
2022-11-29T12:33:29.079Z,101282.19
2022-11-29T12:35:03.684Z,101271.91
2022-11-29T12:36:24.569Z,101275.47
2022-11-29T12:37:50.660Z,101278.91
2022-11-29T12:39:14.983Z,101287.91
2022-11-29T12:40:22.859Z,101275.75
2022-11-29T12:41:43.914Z,101286.03
2022-11-29T12:43:15.527Z,101280.50
2022-11-29T12:44:29.812Z,101276.56
2022-11-29T12:45:33.064Z,101277.13
2022-11-29T12:46:36.369Z,101281.16
2022-11-29T12:48:22.658Z,101271.94
2022-11-29T12:49:41.434Z,101276.06
2022-11-29T12:50:55.587Z,101273.19
2022-11-29T12:52:15.253Z,101274.59
2022-11-29T12:53:40.561Z,101274.34
2022-11-29T12:55:20.891Z,101262.88
2022-11-29T12:56:29.087Z,101262.66
2022-11-29T12:58:10.032Z,101267.06
2022-11-29T12:59:35.517Z,101264.72
2022-11-29T13:00:57.854Z,101253.13
2022-11-29T13:02:00.617Z,101261.22
2022-11-29T13:03:08.893Z,101262.19
2022-11-29T13:04:26.826Z,101251.63
2022-11-29T13:05:42.274Z,101258.59
2022-11-29T13:06:52.932Z,101262.00
2022-11-29T13:08:16.332Z,101261.22
2022-11-29T13:09:44.755Z,101252.75
2022-11-29T13:11:01.069Z,101262.91
2022-11-29T13:12:33.349Z,101255.81
2022-11-29T13:13:46.754Z,101263.81
2022-11-29T13:15:32.682Z,101264.41
2022-11-29T13:16:59.170Z,101258.59
2022-11-29T13:18:11.578Z,101264.63
2022-11-29T13:19:26.159Z,101257.44
2022-11-29T13:20:37.619Z,101255.81
2022-11-29T13:21:58.219Z,101258.47
2022-11-29T13:23:45.548Z,101263.03
2022-11-29T13:24:56.551Z,101267.31
2022-11-29T13:26:04.285Z,101263.22
2022-11-29T13:27:08.085Z,101263.78
2022-11-29T13:28:27.733Z,101262.03
2022-11-29T13:29:30.583Z,101263.75
2022-11-29T13:30:35.949Z,101267.59
2022-11-29T13:31:39.445Z,101264.03
2022-11-29T13:32:48.658Z,101260.13
2022-11-29T13:33:58.042Z,101262.34
2022-11-29T13:35:19.289Z,101261.31
2022-11-29T13:36:40.338Z,101267.16
2022-11-29T13:37:54.952Z,101257.38
2022-11-29T13:39:21.908Z,101260.50
2022-11-29T13:40:54.270Z,101262.41
2022-11-29T13:42:20.089Z,101260.88
2022-11-29T13:44:13.598Z,101261.59
2022-11-29T13:45:21.719Z,101259.09
2022-11-29T13:46:52.725Z,101271.16
2022-11-29T13:47:58.303Z,101258.75